»·PEaware :: N434EP KGEG-KBFI

N434EP :: KGEG-KBFI

FLIGHT INFORMATION

Flight Status: Arrived
Operator: Privately registered:
United States
More flights under this callsign
Pilot: Drew H. (3199)
Aircraft: BEECH AIRCRAFT BARON
(BE58)
More flights by this aircraft type
Origin: KGEG Spokane Intl
United States
Destination: KBFI Boeing Field/King Co Intl
United States
More flights between these airports :: More routes between these airports
Route: GEG GLASR GLASR1
File this flight plan on PilotEdge
Remarks:
Altitude:
(Current/Filed)
10,000ft
Speed:
(Current/Filed)
165kts
Departed: 09-Feb-19 09:30 PM
Arrived: 09-Feb-19 10:48 PM
Distance/Time
Traveled:
193nm/1:17
Distance/Time
To Go:
Arrived

Flight Plot

Page will automatically refresh every two minutes.

Flight plan parsing failed; only flown route is shown


Map Options




Map Legend


Flown Route
Filed Route
Departure Airport
Arrival Airport
Navaid (VOR, NDB)
Fix

Horizontal Profiles

Position Reports

Time Latitude Longitude Heading Altitude Ground
Speed
09-Feb-19 21:16 47.620422 -117.527844 263 2388ft 0kts
09-Feb-19 21:17 47.620422 -117.527844 263 2388ft 0kts
09-Feb-19 21:18 47.620421 -117.527845 263 2388ft 0kts
09-Feb-19 21:19 47.620421 -117.527845 263 2388ft 0kts
09-Feb-19 21:20 47.620421 -117.527845 263 2388ft 0kts
09-Feb-19 21:21 47.620421 -117.527845 263 2388ft 0kts
09-Feb-19 21:22 47.620421 -117.527845 263 2388ft 0kts
09-Feb-19 21:23 47.620421 -117.527845 263 2388ft 0kts
09-Feb-19 21:24 47.620421 -117.527845 263 2388ft 0kts
09-Feb-19 21:25 47.620421 -117.527845 263 2388ft 0kts
09-Feb-19 21:26 47.621020 -117.528683 313 2388ft 0kts
09-Feb-19 21:27 47.618013 -117.534819 265 2388ft 22kts
09-Feb-19 21:28 47.618082 -117.536487 272 2388ft 16kts
09-Feb-19 21:29 47.631898 -117.516976 43 2769ft 116kts
09-Feb-19 21:30 47.654783 -117.483113 44 4150ft 118kts
09-Feb-19 21:31 47.678134 -117.448976 36 5463ft 119kts
09-Feb-19 21:32 47.696391 -117.480267 277 6687ft 135kts
09-Feb-19 21:33 47.699843 -117.538129 276 7694ft 147kts
09-Feb-19 21:34 47.703379 -117.598996 275 8669ft 149kts
09-Feb-19 21:35 47.706899 -117.660327 274 9549ft 151kts
09-Feb-19 21:36 47.710580 -117.724944 274 9987ft 166kts
09-Feb-19 21:37 47.714537 -117.795195 274 9974ft 168kts
09-Feb-19 21:38 47.718336 -117.863493 274 9971ft 164kts
09-Feb-19 21:39 47.722071 -117.931158 274 9971ft 163kts
09-Feb-19 21:40 47.725741 -117.998551 274 9972ft 163kts
09-Feb-19 21:41 47.729369 -118.065876 274 9972ft 163kts
09-Feb-19 21:42 47.732967 -118.133322 274 9972ft 163kts
09-Feb-19 21:43 47.736528 -118.200851 274 9972ft 164kts
09-Feb-19 21:44 47.740055 -118.268476 274 9972ft 164kts
09-Feb-19 21:45 47.743536 -118.336006 274 9974ft 163kts
09-Feb-19 21:46 47.746986 -118.403703 274 9985ft 165kts
09-Feb-19 21:47 47.750464 -118.472772 274 9994ft 167kts
09-Feb-19 21:48 47.753912 -118.541992 274 9992ft 169kts
09-Feb-19 21:49 47.757351 -118.611929 274 9966ft 168kts
09-Feb-19 21:50 47.760596 -118.678732 273 9972ft 168kts
09-Feb-19 21:51 47.763923 -118.748176 273 9981ft 168kts
09-Feb-19 21:52 47.767188 -118.817251 273 9989ft 168kts
09-Feb-19 21:53 47.770422 -118.886909 274 9989ft 169kts
09-Feb-19 21:54 47.773638 -118.956760 275 9990ft 170kts
09-Feb-19 21:55 47.776835 -119.027118 277 9989ft 170kts
09-Feb-19 21:56 47.780018 -119.097503 277 9989ft 170kts
09-Feb-19 21:57 47.783148 -119.168001 277 9990ft 170kts
09-Feb-19 21:58 47.786208 -119.238093 277 9990ft 170kts
09-Feb-19 21:59 47.789281 -119.309152 277 9991ft 176kts
09-Feb-19 22:00 47.792400 -119.382747 277 9990ft 178kts
09-Feb-19 22:01 47.795487 -119.456717 277 9990ft 179kts
09-Feb-19 22:02 47.798520 -119.530835 277 9990ft 177kts
09-Feb-19 22:03 47.801485 -119.603947 277 9990ft 176kts
09-Feb-19 22:04 47.804360 -119.676020 276 9988ft 175kts
09-Feb-19 22:05 47.807230 -119.749267 276 9988ft 175kts
09-Feb-19 22:06 47.810017 -119.821977 277 9997ft 174kts
09-Feb-19 22:07 47.812725 -119.893379 277 10007ft 171kts
09-Feb-19 22:08 47.815483 -119.965033 272 10021ft 176kts
09-Feb-19 22:09 47.818102 -120.038432 273 10027ft 177kts
09-Feb-19 22:10 47.820691 -120.112227 275 10036ft 176kts
09-Feb-19 22:11 47.823285 -120.184092 275 10035ft 172kts
09-Feb-19 22:12 47.825764 -120.254897 275 10035ft 171kts
09-Feb-19 22:13 47.828196 -120.325861 275 10035ft 171kts
09-Feb-19 22:14 47.830572 -120.396793 275 10036ft 171kts
09-Feb-19 22:15 47.832906 -120.467824 275 10036ft 171kts
09-Feb-19 22:16 47.835196 -120.538784 275 10036ft 171kts
09-Feb-19 22:17 47.837447 -120.609829 275 10036ft 171kts
09-Feb-19 22:18 47.839261 -120.668091 275 10035ft 171kts
09-Feb-19 22:19 47.841528 -120.742282 275 10035ft 171kts
09-Feb-19 22:21 47.843650 -120.813316 275 10035ft 171kts
09-Feb-19 22:22 47.845725 -120.884202 275 10035ft 171kts
09-Feb-19 22:23 47.847760 -120.955213 274 10035ft 171kts
09-Feb-19 22:24 47.849756 -121.026215 274 10022ft 171kts
09-Feb-19 22:25 47.851698 -121.097014 274 10006ft 171kts
09-Feb-19 22:26 47.853589 -121.167591 274 9990ft 170kts
09-Feb-19 22:27 47.857200 -121.237636 277 9980ft 168kts
09-Feb-19 22:28 47.861640 -121.306969 277 9980ft 168kts
09-Feb-19 22:29 47.866078 -121.376500 277 9981ft 168kts
09-Feb-19 22:30 47.870474 -121.445954 277 9981ft 168kts
09-Feb-19 22:31 47.874829 -121.515265 277 9972ft 168kts
09-Feb-19 22:32 47.879139 -121.584859 277 9972ft 168kts
09-Feb-19 22:33 47.883404 -121.654297 276 9971ft 168kts
09-Feb-19 22:34 47.872575 -121.718498 227 9970ft 170kts
09-Feb-19 22:35 47.838539 -121.767807 222 9971ft 170kts
09-Feb-19 22:35 47.810026 -121.808745 221 9608ft 172kts
09-Feb-19 22:37 47.768314 -121.867433 224 8694ft 181kts
09-Feb-19 22:38 47.732076 -121.917758 222 8021ft 180kts
09-Feb-19 22:39 47.696056 -121.968393 223 7021ft 178kts
09-Feb-19 22:39 47.666007 -122.008997 221 6335ft 175kts
09-Feb-19 22:41 47.624010 -122.064046 222 5364ft 169kts
09-Feb-19 22:41 47.594662 -122.102029 220 4567ft 168kts
09-Feb-19 22:42 47.558801 -122.144014 217 3448ft 154kts
09-Feb-19 22:44 47.522601 -122.186131 230 2526ft 143kts
09-Feb-19 22:45 47.501634 -122.229602 243 1741ft 132kts
09-Feb-19 22:45 47.491647 -122.269154 298 850ft 108kts
09-Feb-19 22:46 47.515451 -122.290135 330 159ft 95kts
09-Feb-19 22:47 47.527297 -122.298872 59 24ft 0kts
09-Feb-19 22:48 47.527492 -122.297090 137 24ft 0kts

Navigation Log

Ident Type
Flight plan parsing failed, navigation log unavailable